Time;durP1;ratioP1;P1;durP2;ratioP2;P2;SDS_P1;SDS_P2;PMS_P1;PMS_P2;Temp;Humidity;BMP_temperature;BMP_pressure;BME280_temperature;BME280_humidity;BME280_pressure;Samples;Min_cycle;Max_cycle;Signal;HPM_P1;HPM_P2
2021/10/31 00:00:11;;;;;;;11.80;5.30;;;13.10;85.20;;;;;;5064413;28;20538;-70
2021/10/31 00:02:39;;;;;;;13.53;9.77;;;13.10;85.20;;;;;;5080380;28;20248;-70
2021/10/31 00:05:10;;;;;;;6.53;5.90;;;13.00;85.30;;;;;;5082516;28;20665;-70
2021/10/31 00:07:37;;;;;;;12.23;7.63;;;13.00;85.30;;;;;;5082367;28;20216;-71
2021/10/31 00:10:06;;;;;;;7.50;6.60;;;13.00;85.30;;;;;;5078653;28;20221;-70
2021/10/31 00:12:33;;;;;;;7.87;6.17;;;13.00;85.40;;;;;;5078089;28;20210;-71
2021/10/31 00:15:00;;;;;;;7.87;5.63;;;13.00;85.40;;;;;;5060926;28;20210;-70
2021/10/31 00:17:27;;;;;;;12.90;8.63;;;13.00;85.50;;;;;;5077716;28;20263;-71
2021/10/31 00:19:55;;;;;;;6.30;5.70;;;12.90;85.50;;;;;;5077598;28;20569;-70
2021/10/31 00:22:22;;;;;;;9.20;5.80;;;12.90;85.60;;;;;;5077390;28;20237;-71
2021/10/31 00:24:49;;;;;;;11.97;5.23;;;12.90;85.60;;;;;;5061219;28;20202;-70
2021/10/31 00:27:17;;;;;;;9.43;8.60;;;12.90;85.60;;;;;;5060477;28;20240;-70
2021/10/31 00:29:44;;;;;;;7.70;6.53;;;12.90;85.60;;;;;;5076781;28;20275;-70
2021/10/31 00:32:16;;;;;;;8.60;7.70;;;12.90;85.60;;;;;;5060217;28;20229;-70
2021/10/31 00:34:44;;;;;;;24.17;7.40;;;12.90;85.70;;;;;;5080938;28;20273;-70
2021/10/31 00:37:18;;;;;;;8.73;4.83;;;12.90;85.70;;;;;;5065404;28;20305;-70
2021/10/31 00:39:57;;;;;;;6.67;6.07;;;12.90;85.80;;;;;;5078226;28;20241;-70
2021/10/31 00:42:27;;;;;;;13.50;7.57;;;12.90;85.80;;;;;;5063389;28;20205;-70
2021/10/31 00:44:54;;;;;;;8.37;5.90;;;12.90;85.90;;;;;;5062696;28;20244;-70
2021/10/31 00:47:21;;;;;;;10.57;5.30;;;12.90;85.90;;;;;;5063272;28;20206;-70
2021/10/31 00:49:51;;;;;;;12.10;7.70;;;12.90;85.90;;;;;;5081296;28;20210;-70
2021/10/31 00:52:20;;;;;;;9.43;4.57;;;12.90;85.90;;;;;;5081154;28;20222;-71
2021/10/31 00:54:54;;;;;;;19.70;7.37;;;12.90;86.00;;;;;;5064586;28;20248;-71
2021/10/31 00:57:32;;;;;;;10.57;7.60;;;12.90;86.00;;;;;;5062385;28;20293;-70
2021/10/31 01:00:28;;;;;;;13.23;6.73;;;12.90;86.00;;;;;;5065853;28;20236;-70
2021/10/31 01:02:55;;;;;;;8.93;8.13;;;12.80;86.00;;;;;;5062369;28;20206;-70
2021/10/31 01:05:30;;;;;;;6.90;5.33;;;12.80;86.10;;;;;;5080067;28;20267;-70
2021/10/31 01:08:19;;;;;;;4.53;4.03;;;12.80;86.10;;;;;;5063735;28;20224;-70
2021/10/31 01:11:06;;;;;;;5.63;5.17;;;12.80;86.20;;;;;;5058000;28;20206;-71
2021/10/31 01:14:18;;;;;;;5.53;5.10;;;12.80;86.30;;;;;;5059035;28;20210;-70
2021/10/31 01:16:56;;;;;;;6.90;5.10;;;12.80;86.40;;;;;;4998485;28;20637;-70
2021/10/31 01:19:54;;;;;;;11.87;5.17;;;12.70;86.40;;;;;;5036837;28;20225;-71
2021/10/31 01:22:39;;;;;;;6.23;5.67;;;12.70;86.50;;;;;;5059811;28;20229;-71
2021/10/31 01:25:27;;;;;;;6.50;5.33;;;12.70;86.60;;;;;;5059259;28;20206;-70
2021/10/31 01:28:31;;;;;;;9.30;7.10;;;12.70;86.70;;;;;;5072875;28;20638;-71
2021/10/31 01:31:08;;;;;;;14.83;7.03;;;12.70;86.80;;;;;;5081160;28;20213;-71
2021/10/31 01:33:58;;;;;;;15.07;8.20;;;12.70;86.80;;;;;;5062808;28;20303;-70
2021/10/31 01:36:55;;;;;;;6.60;6.07;;;12.70;86.80;;;;;;5081561;28;20605;-71
2021/10/31 01:39:57;;;;;;;8.30;5.50;;;12.70;86.80;;;;;;5061715;28;20229;-70
2021/10/31 01:42:45;;;;;;;8.50;5.27;;;12.70;86.90;;;;;;5080369;28;20201;-71
2021/10/31 01:45:39;;;;;;;18.80;7.70;;;12.70;87.00;;;;;;5053141;28;20254;-71
2021/10/31 01:48:15;;;;;;;22.23;5.97;;;12.70;87.10;;;;;;5059744;28;20202;-71
2021/10/31 01:50:48;;;;;;;14.53;5.23;;;12.60;87.10;;;;;;5059661;28;20206;-71
2021/10/31 01:53:30;;;;;;;11.97;8.80;;;12.60;87.20;;;;;;5041215;28;20206;-70
2021/10/31 01:56:07;;;;;;;10.37;7.90;;;12.60;87.20;;;;;;5041785;28;20191;-71
2021/10/31 01:58:43;;;;;;;20.20;7.47;;;12.60;87.30;;;;;;5077331;28;20252;-71
2021/10/31 02:01:14;;;;;;;7.73;6.37;;;12.60;87.30;;;;;;5078386;28;20206;-70
2021/10/31 02:03:43;;;;;;;17.50;6.93;;;12.60;87.40;;;;;;5061988;28;20240;-70
2021/10/31 02:06:12;;;;;;;14.10;8.23;;;12.60;87.40;;;;;;5078096;28;20228;-71
2021/10/31 02:08:44;;;;;;;16.17;6.53;;;12.60;88.10;;;;;;5062648;28;20210;-71
2021/10/31 02:11:16;;;;;;;11.40;5.77;;;12.50;87.40;;;;;;5081776;28;20550;-71
2021/10/31 02:13:49;;;;;;;4.00;3.63;;;12.50;87.50;;;;;;5083872;28;20206;-71
2021/10/31 02:16:19;;;;;;;6.13;5.43;;;12.50;88.20;;;;;;5061135;28;20701;-70
2021/10/31 02:18:50;;;;;;;7.00;6.33;;;12.50;87.70;;;;;;5059563;28;20708;-70
2021/10/31 02:21:21;;;;;;;12.67;6.83;;;12.50;87.70;;;;;;5077071;28;20205;-71
2021/10/31 02:23:48;;;;;;;12.13;7.13;;;12.50;87.80;;;;;;5078535;28;20267;-71
2021/10/31 02:26:21;;;;;;;8.60;5.13;;;12.50;87.80;;;;;;5077812;28;20217;-71
2021/10/31 02:29:01;;;;;;;9.00;6.00;;;12.50;87.90;;;;;;5057790;28;20224;-70
2021/10/31 02:31:29;;;;;;;6.73;6.10;;;12.50;88.00;;;;;;5049856;28;20202;-71
2021/10/31 02:33:57;;;;;;;11.80;5.93;;;12.50;88.00;;;;;;5078351;28;20224;-72
2021/10/31 02:36:26;;;;;;;13.93;7.93;;;12.50;88.00;;;;;;5062367;28;20206;-71
2021/10/31 02:38:57;;;;;;;26.27;7.13;;;12.50;88.00;;;;;;5060171;28;20205;-71
2021/10/31 02:41:24;;;;;;;8.10;7.40;;;12.50;88.10;;;;;;5062617;28;20214;-71
2021/10/31 02:43:51;;;;;;;6.90;6.17;;;12.50;88.10;;;;;;5076611;28;20722;-71
2021/10/31 02:46:19;;;;;;;11.70;9.00;;;12.60;88.30;;;;;;5060014;28;20290;-70
2021/10/31 02:48:46;;;;;;;9.03;6.80;;;12.60;88.30;;;;;;5060212;28;20210;-70
2021/10/31 02:51:51;;;;;;;12.10;5.97;;;12.60;88.30;;;;;;5065018;28;20242;-70
2021/10/31 02:54:51;;;;;;;10.53;9.53;;;12.60;88.30;;;;;;5062641;28;20209;-71
2021/10/31 02:57:46;;;;;;;5.87;4.60;;;12.60;88.30;;;;;;5076939;28;20297;-70
2021/10/31 03:00:15;;;;;;;7.77;5.63;;;12.60;88.30;;;;;;5076443;28;20229;-70
2021/10/31 03:02:46;;;;;;;19.93;8.60;;;12.60;88.30;;;;;;5061116;28;20202;-71
2021/10/31 03:05:15;;;;;;;11.87;7.10;;;12.60;88.40;;;;;;5060623;28;20213;-71
2021/10/31 03:07:42;;;;;;;7.93;6.30;;;12.50;88.40;;;;;;5060458;28;20224;-70
2021/10/31 03:10:14;;;;;;;8.20;4.83;;;12.50;88.50;;;;;;5060943;28;20221;-71
2021/10/31 03:12:48;;;;;;;17.37;7.23;;;12.50;88.60;;;;;;5058865;28;20237;-70
2021/10/31 03:15:18;;;;;;;21.17;7.47;;;12.40;88.70;;;;;;5059494;28;20308;-71
2021/10/31 03:17:45;;;;;;;9.13;6.00;;;12.40;88.70;;;;;;5077934;28;20217;-71
2021/10/31 03:20:12;;;;;;;6.73;6.03;;;12.40;88.80;;;;;;5075795;28;20234;-71
2021/10/31 03:22:44;;;;;;;17.90;6.03;;;12.40;88.90;;;;;;5080599;28;20275;-71
2021/10/31 03:25:11;;;;;;;6.20;5.57;;;12.40;88.90;;;;;;5063781;28;20658;-72
2021/10/31 03:27:41;;;;;;;9.63;6.97;;;12.40;88.90;;;;;;5080874;28;20202;-71
2021/10/31 03:30:09;;;;;;;10.47;6.83;;;12.40;88.90;;;;;;5081297;28;20216;-72
2021/10/31 03:32:37;;;;;;;15.70;8.07;;;12.40;88.90;;;;;;5065259;28;20282;-71
2021/10/31 03:35:05;;;;;;;10.67;9.23;;;12.40;89.00;;;;;;5064431;28;20266;-71
2021/10/31 03:37:33;;;;;;;7.17;5.17;;;12.40;89.00;;;;;;5063538;28;20202;-71
2021/10/31 03:40:04;;;;;;;13.20;7.00;;;12.40;89.00;;;;;;5082345;28;20229;-71
2021/10/31 03:42:31;;;;;;;6.80;6.30;;;12.40;89.00;;;;;;5064112;28;20212;-70
2021/10/31 03:44:59;;;;;;;6.50;5.70;;;12.40;89.10;;;;;;5081240;28;20571;-71
2021/10/31 03:47:29;;;;;;;8.70;5.67;;;12.40;89.10;;;;;;5082198;28;20205;-71
2021/10/31 03:49:56;;;;;;;13.93;8.70;;;12.40;89.20;;;;;;5063281;28;20210;-71
2021/10/31 03:52:23;;;;;;;7.97;7.23;;;12.30;89.20;;;;;;5080177;28;20218;-71
2021/10/31 03:54:50;;;;;;;7.00;5.17;;;12.30;89.20;;;;;;5080713;28;20220;-72
2021/10/31 03:57:19;;;;;;;8.83;7.83;;;12.30;89.30;;;;;;5080541;28;20295;-72
2021/10/31 03:59:48;;;;;;;7.23;6.37;;;12.30;89.40;;;;;;5080705;28;20313;-71
2021/10/31 04:02:15;;;;;;;9.73;6.23;;;12.30;89.50;;;;;;5080878;28;20214;-71
2021/10/31 04:04:42;;;;;;;10.87;6.97;;;12.20;89.60;;;;;;5079610;28;20583;-70
2021/10/31 04:07:10;;;;;;;10.33;9.13;;;12.20;89.70;;;;;;5079801;28;20619;-72
2021/10/31 04:09:37;;;;;;;5.53;5.03;;;12.20;89.70;;;;;;5061326;28;20222;-71
2021/10/31 04:12:05;;;;;;;16.70;5.87;;;12.10;89.80;;;;;;5079220;28;20236;-70
2021/10/31 04:14:35;;;;;;;6.83;5.73;;;12.10;89.80;;;;;;5079255;28;20252;-71
2021/10/31 04:17:03;;;;;;;8.63;7.70;;;12.00;89.90;;;;;;5078843;28;20217;-71
2021/10/31 04:19:30;;;;;;;7.13;5.77;;;12.00;89.90;;;;;;5079403;28;20230;-71
2021/10/31 04:21:58;;;;;;;6.03;5.50;;;11.90;89.90;;;;;;5079665;28;20296;-71
2021/10/31 04:24:25;;;;;;;9.47;5.27;;;11.90;90.00;;;;;;5078963;28;20217;-71
2021/10/31 04:26:53;;;;;;;10.10;7.20;;;11.90;90.00;;;;;;5062106;28;20206;-70
2021/10/31 04:29:20;;;;;;;8.43;6.37;;;11.80;90.00;;;;;;5062384;28;20206;-71
2021/10/31 04:31:49;;;;;;;7.97;6.60;;;11.80;90.10;;;;;;5061388;28;20220;-71
2021/10/31 04:34:17;;;;;;;16.83;5.30;;;11.80;90.10;;;;;;5062693;28;20236;-72
2021/10/31 04:36:50;;;;;;;6.67;5.13;;;11.70;90.20;;;;;;5080130;28;20240;-71
2021/10/31 04:39:18;;;;;;;23.00;5.83;;;11.70;90.20;;;;;;5059980;28;20263;-71
2021/10/31 04:41:47;;;;;;;8.33;6.13;;;11.70;90.30;;;;;;5061323;28;20244;-72
2021/10/31 04:44:16;;;;;;;10.00;7.70;;;11.70;90.30;;;;;;5078434;28;20287;-72
2021/10/31 04:46:45;;;;;;;5.50;3.93;;;11.80;90.30;;;;;;5058259;28;20246;-71
2021/10/31 04:49:12;;;;;;;9.50;8.13;;;11.80;90.30;;;;;;5041597;28;20210;-72
2021/10/31 04:51:41;;;;;;;13.63;7.30;;;11.70;90.30;;;;;;5041134;28;20253;-72
2021/10/31 04:54:09;;;;;;;6.70;6.13;;;11.80;90.30;;;;;;5042578;28;20245;-72
2021/10/31 04:56:36;;;;;;;5.03;4.67;;;11.80;90.30;;;;;;5041743;28;20222;-71
2021/10/31 04:59:03;;;;;;;6.27;5.77;;;11.90;90.30;;;;;;5059800;28;20233;-71
2021/10/31 05:01:31;;;;;;;15.00;6.43;;;11.90;90.30;;;;;;5058507;28;20226;-72
2021/10/31 05:04:00;;;;;;;9.17;7.57;;;12.00;90.30;;;;;;5042065;28;20271;-71
2021/10/31 05:06:27;;;;;;;10.33;7.43;;;12.00;90.30;;;;;;5074773;28;20209;-72
2021/10/31 05:08:55;;;;;;;9.47;7.17;;;12.10;90.20;;;;;;5061267;28;20225;-71
2021/10/31 05:11:24;;;;;;;10.73;7.73;;;12.10;90.20;;;;;;5061099;28;20609;-71
2021/10/31 05:13:51;;;;;;;8.63;7.87;;;12.20;90.20;;;;;;5062219;28;20221;-71
2021/10/31 05:16:19;;;;;;;7.40;6.37;;;12.20;90.20;;;;;;5061564;28;20227;-71
2021/10/31 05:18:47;;;;;;;5.53;5.10;;;12.20;90.20;;;;;;5062877;28;20205;-72
2021/10/31 05:21:17;;;;;;;8.33;7.40;;;12.30;90.30;;;;;;5081214;28;20251;-71
2021/10/31 05:23:44;;;;;;;7.50;5.37;;;12.30;90.20;;;;;;5079186;28;20209;-71
2021/10/31 05:26:13;;;;;;;7.83;6.80;;;12.30;90.20;;;;;;5077880;28;20214;-71
2021/10/31 05:28:41;;;;;;;7.63;6.20;;;12.30;90.20;;;;;;5078960;28;20209;-71
2021/10/31 05:31:09;;;;;;;8.00;7.13;;;12.30;90.20;;;;;;5060714;28;20232;-71
2021/10/31 05:33:37;;;;;;;7.53;6.13;;;12.30;90.20;;;;;;5078661;28;20269;-71
2021/10/31 05:36:04;;;;;;;9.53;6.87;;;12.40;90.20;;;;;;5059867;28;20220;-71
2021/10/31 05:38:32;;;;;;;6.77;5.60;;;12.40;90.20;;;;;;5061109;28;20213;-71
2021/10/31 05:40:59;;;;;;;9.00;8.00;;;12.40;90.20;;;;;;5061985;28;20238;-71
2021/10/31 05:43:27;;;;;;;10.23;7.10;;;12.40;90.20;;;;;;5076996;28;20225;-72
2021/10/31 05:45:56;;;;;;;9.03;7.07;;;12.40;90.40;;;;;;5060048;28;20237;-72
2021/10/31 05:48:26;;;;;;;8.23;5.23;;;12.50;90.10;;;;;;5079084;28;20210;-72
2021/10/31 05:50:56;;;;;;;22.30;9.47;;;12.50;90.10;;;;;;5060873;28;20267;-72
2021/10/31 05:53:24;;;;;;;9.33;7.67;;;12.50;90.10;;;;;;5079328;28;20567;-72
2021/10/31 05:55:52;;;;;;;7.37;6.77;;;12.50;90.10;;;;;;5061507;28;20206;-71
2021/10/31 05:58:20;;;;;;;11.40;6.60;;;12.50;90.20;;;;;;5067212;28;20616;-71
2021/10/31 06:00:47;;;;;;;6.90;6.33;;;12.50;90.10;;;;;;5065947;28;20566;-71
2021/10/31 06:03:15;;;;;;;14.20;11.40;;;12.50;90.10;;;;;;5064165;28;20210;-72
2021/10/31 06:05:47;;;;;;;8.67;4.83;;;12.50;90.20;;;;;;5079048;28;20213;-72
2021/10/31 06:08:17;;;;;;;7.63;6.33;;;12.40;90.10;;;;;;5058299;28;20229;-71
2021/10/31 06:10:47;;;;;;;10.93;7.60;;;12.50;90.20;;;;;;5059080;28;20210;-72
2021/10/31 06:13:33;;;;;;;10.30;5.53;;;12.40;90.20;;;;;;5076111;28;20558;-71
2021/10/31 06:16:00;;;;;;;6.27;5.77;;;12.40;90.20;;;;;;5077005;28;20217;-71
2021/10/31 06:18:39;;;;;;;10.03;5.63;;;12.40;90.20;;;;;;5058879;28;20224;-71
2021/10/31 06:21:07;;;;;;;9.53;5.50;;;12.40;90.20;;;;;;5058267;28;20233;-71
2021/10/31 06:23:37;;;;;;;9.10;5.77;;;12.50;90.20;;;;;;5074737;28;20217;-72
2021/10/31 06:26:05;;;;;;;19.77;8.40;;;12.50;90.20;;;;;;5075732;28;20237;-72
2021/10/31 06:28:32;;;;;;;5.70;4.70;;;12.50;90.20;;;;;;5057675;28;20213;-71
2021/10/31 06:31:03;;;;;;;8.43;6.83;;;12.60;90.20;;;;;;5076189;28;20217;-72
2021/10/31 06:33:33;;;;;;;20.00;9.67;;;12.60;90.10;;;;;;5079904;28;20233;-71
2021/10/31 06:36:01;;;;;;;8.10;4.93;;;12.60;90.10;;;;;;5077936;28;20225;-72
2021/10/31 06:38:28;;;;;;;19.40;6.40;;;12.60;90.10;;;;;;5077568;28;20674;-72
2021/10/31 06:40:55;;;;;;;4.23;3.93;;;12.70;90.10;;;;;;5076308;28;20229;-72
2021/10/31 06:43:27;;;;;;;4.73;4.33;;;12.70;90.00;;;;;;5076866;28;20214;-72
2021/10/31 06:45:57;;;;;;;10.40;5.33;;;12.70;90.00;;;;;;5078895;28;20233;-72
2021/10/31 06:48:25;;;;;;;9.83;7.97;;;12.80;90.00;;;;;;5062948;28;20201;-72
2021/10/31 06:50:56;;;;;;;9.03;7.87;;;12.80;90.00;;;;;;5060157;28;20224;-71
2021/10/31 06:53:26;;;;;;;9.63;6.83;;;12.80;90.00;;;;;;5058362;28;20251;-71
2021/10/31 06:55:53;;;;;;;18.17;7.73;;;12.80;89.90;;;;;;5076465;28;20220;-73
2021/10/31 06:58:21;;;;;;;13.77;8.20;;;12.80;89.90;;;;;;5078822;28;20210;-71
2021/10/31 07:00:49;;;;;;;6.87;6.23;;;12.80;90.20;;;;;;5078137;28;20268;-72
2021/10/31 07:03:16;;;;;;;11.70;6.50;;;12.90;89.90;;;;;;5062490;28;20213;-72
2021/10/31 07:05:44;;;;;;;7.87;7.07;;;12.90;89.80;;;;;;5058555;28;20220;-71
2021/10/31 07:08:11;;;;;;;19.00;5.77;;;12.90;89.80;;;;;;5079882;28;20259;-71
2021/10/31 07:10:39;;;;;;;8.07;6.97;;;12.90;89.70;;;;;;5060952;28;20607;-71
2021/10/31 07:13:07;;;;;;;11.17;6.30;;;13.00;89.70;;;;;;5062499;28;20537;-72
2021/10/31 07:15:35;;;;;;;16.60;10.50;;;13.00;89.60;;;;;;5080251;28;20213;-72
2021/10/31 07:18:11;;;;;;;17.73;8.17;;;13.00;89.60;;;;;;5062083;28;20205;-72
2021/10/31 07:20:38;;;;;;;8.20;5.87;;;13.00;89.50;;;;;;5059618;28;20759;-71
2021/10/31 07:23:05;;;;;;;22.77;5.77;;;13.10;89.50;;;;;;5073527;28;20221;-72
2021/10/31 07:25:37;;;;;;;9.77;4.90;;;13.10;89.40;;;;;;5079846;28;20216;-72
2021/10/31 07:28:07;;;;;;;7.43;5.23;;;13.20;89.30;;;;;;5080029;28;20241;-71
2021/10/31 07:30:34;;;;;;;12.60;5.77;;;13.20;89.20;;;;;;5080028;28;20233;-71
2021/10/31 07:33:04;;;;;;;7.97;6.70;;;13.30;89.10;;;;;;5079774;28;20209;-70
2021/10/31 07:35:33;;;;;;;17.63;7.37;;;13.30;88.80;;;;;;5062465;28;20221;-71
2021/10/31 07:38:03;;;;;;;25.33;9.60;;;13.30;88.80;;;;;;5060624;28;20668;-72
2021/10/31 07:40:31;;;;;;;11.83;7.57;;;13.40;88.80;;;;;;5078607;28;20225;-72
2021/10/31 07:43:00;;;;;;;8.50;5.33;;;13.40;88.60;;;;;;5060206;28;20202;-70
2021/10/31 07:45:43;;;;;;;6.10;5.60;;;13.50;88.50;;;;;;5062405;28;20242;-73
2021/10/31 07:48:12;;;;;;;11.93;6.93;;;13.50;88.40;;;;;;5061025;28;20550;-70
2021/10/31 07:50:40;;;;;;;15.37;7.93;;;13.60;88.30;;;;;;5077435;28;20210;-71
2021/10/31 07:53:10;;;;;;;11.13;6.27;;;13.70;88.10;;;;;;5060754;28;20240;-71
2021/10/31 07:55:42;;;;;;;6.60;4.57;;;13.70;87.90;;;;;;5078977;28;20213;-70
2021/10/31 07:58:15;;;;;;;7.50;6.53;;;13.80;87.70;;;;;;5053319;28;20203;-72
2021/10/31 08:00:46;;;;;;;9.57;7.17;;;13.80;87.50;;;;;;5058722;28;20241;-73
2021/10/31 08:03:27;;;;;;;6.43;5.67;;;13.80;87.40;;;;;;5059372;28;20214;-74
2021/10/31 08:05:56;;;;;;;7.13;6.07;;;13.90;87.20;;;;;;5055996;28;20213;-72
2021/10/31 08:08:27;;;;;;;7.30;3.80;;;13.90;86.80;;;;;;5057267;28;20256;-72
2021/10/31 08:10:54;;;;;;;6.60;6.03;;;13.90;86.70;;;;;;5059432;28;20666;-72
2021/10/31 08:13:23;;;;;;;8.47;5.97;;;14.00;86.60;;;;;;5077841;28;20214;-71
2021/10/31 08:15:53;;;;;;;13.40;7.30;;;14.00;86.30;;;;;;5059022;28;20252;-72
2021/10/31 08:18:23;;;;;;;17.43;6.03;;;14.10;86.20;;;;;;5061523;28;20225;-72
2021/10/31 08:20:52;;;;;;;6.10;4.20;;;14.20;86.10;;;;;;5072592;28;20226;-71
2021/10/31 08:23:20;;;;;;;7.07;6.03;;;14.20;85.50;;;;;;5059358;28;20312;-72
2021/10/31 08:25:48;;;;;;;4.93;4.53;;;14.20;85.20;;;;;;5077202;28;20209;-71
2021/10/31 08:28:19;;;;;;;5.53;4.03;;;14.20;85.40;;;;;;5077275;28;20213;-72
2021/10/31 08:30:55;;;;;;;12.47;6.53;;;14.30;85.30;;;;;;5075750;28;20292;-72
2021/10/31 08:36:05;;;;;;;6.73;6.07;;;14.40;84.80;;;;;;5074019;28;20221;-72
2021/10/31 08:38:34;;;;;;;8.73;4.27;;;14.40;84.70;;;;;;5059972;28;20288;-72
2021/10/31 08:41:02;;;;;;;7.83;5.47;;;14.40;84.50;;;;;;5058555;28;20240;-72
2021/10/31 08:43:35;;;;;;;10.43;7.80;;;14.40;84.70;;;;;;5058723;28;20210;-71
2021/10/31 08:46:02;;;;;;;10.47;6.70;;;14.40;84.70;;;;;;5072305;28;20245;-71
2021/10/31 08:48:30;;;;;;;8.50;7.70;;;14.40;85.20;;;;;;5077407;28;20244;-71
2021/10/31 08:50:58;;;;;;;7.90;5.03;;;14.40;84.50;;;;;;5076658;28;20228;-72
2021/10/31 08:53:28;;;;;;;9.80;6.13;;;14.40;84.60;;;;;;5076869;28;20243;-73
2021/10/31 08:55:59;;;;;;;15.33;5.40;;;14.40;84.50;;;;;;5059072;28;20213;-70
2021/10/31 08:58:29;;;;;;;20.83;6.87;;;14.60;84.30;;;;;;5049865;28;20228;-71
2021/10/31 09:00:59;;;;;;;9.27;5.53;;;14.60;84.10;;;;;;5077005;28;20236;-70
2021/10/31 09:03:28;;;;;;;12.03;5.93;;;14.60;84.00;;;;;;5060160;28;20595;-70
2021/10/31 09:05:55;;;;;;;11.80;6.17;;;14.60;83.70;;;;;;5059593;28;20654;-72
2021/10/31 09:08:22;;;;;;;17.00;7.67;;;14.60;83.20;;;;;;5076610;28;20658;-72
2021/10/31 09:10:52;;;;;;;5.80;4.80;;;14.60;83.00;;;;;;5074767;28;20209;-72
2021/10/31 09:13:21;;;;;;;6.53;4.87;;;14.60;83.20;;;;;;5059348;28;20277;-71
2021/10/31 09:15:52;;;;;;;12.63;7.93;;;14.60;83.20;;;;;;5060208;28;20600;-72
2021/10/31 09:18:24;;;;;;;4.03;3.67;;;14.50;83.10;;;;;;5078012;28;20296;-71
2021/10/31 09:20:53;;;;;;;10.53;8.23;;;14.60;82.90;;;;;;5056807;28;20244;-72
2021/10/31 09:23:21;;;;;;;9.13;8.13;;;14.60;82.70;;;;;;5078597;28;20205;-72
2021/10/31 09:25:48;;;;;;;6.10;5.57;;;14.60;82.40;;;;;;5078227;28;20245;-71
2021/10/31 09:28:16;;;;;;;7.93;5.83;;;14.70;82.40;;;;;;5061597;28;20205;-72
2021/10/31 09:30:45;;;;;;;14.47;6.23;;;14.70;82.40;;;;;;5077077;28;20293;-71
2021/10/31 09:33:14;;;;;;;5.63;4.83;;;14.80;82.20;;;;;;5076585;28;20279;-71
2021/10/31 09:35:55;;;;;;;10.73;7.40;;;14.90;81.90;;;;;;5056494;28;20210;-72
2021/10/31 09:38:26;;;;;;;7.97;4.83;;;15.00;81.60;;;;;;5060769;28;20231;-72
2021/10/31 09:40:55;;;;;;;5.47;5.03;;;15.00;81.30;;;;;;5060636;28;20244;-72
2021/10/31 09:43:25;;;;;;;13.10;6.57;;;15.00;81.10;;;;;;5076773;28;20221;-72
2021/10/31 09:45:56;;;;;;;7.00;5.37;;;15.10;80.90;;;;;;5077485;28;20348;-71
2021/10/31 09:48:30;;;;;;;7.63;4.00;;;15.10;80.60;;;;;;5061834;28;20210;-71
2021/10/31 09:50:59;;;;;;;15.70;7.60;;;15.10;80.70;;;;;;5060579;28;20658;-72
2021/10/31 09:53:28;;;;;;;14.90;10.33;;;15.10;80.80;;;;;;5079004;28;20218;-72
2021/10/31 09:55:57;;;;;;;7.97;4.37;;;15.10;80.70;;;;;;5060209;28;20225;-71
2021/10/31 09:58:40;;;;;;;14.93;7.60;;;15.10;80.70;;;;;;5061379;28;20227;-71
2021/10/31 10:01:48;;;;;;;16.33;8.13;;;15.10;80.70;;;;;;5074600;28;20745;-71
2021/10/31 10:04:30;;;;;;;9.20;4.63;;;15.20;80.70;;;;;;5077850;28;20221;-72
2021/10/31 10:07:07;;;;;;;11.20;6.60;;;15.30;80.50;;;;;;5059495;28;20228;-72
2021/10/31 10:09:53;;;;;;;6.70;4.57;;;15.30;80.20;;;;;;5055466;28;20275;-71
2021/10/31 10:12:22;;;;;;;9.17;6.50;;;15.30;80.20;;;;;;5059346;28;20604;-72
2021/10/31 10:15:11;;;;;;;6.67;5.33;;;15.40;80.10;;;;;;5076784;28;20243;-71
2021/10/31 10:17:51;;;;;;;7.77;6.20;;;15.50;79.90;;;;;;5057665;28;20217;-71
2021/10/31 10:20:21;;;;;;;5.90;5.13;;;15.50;79.50;;;;;;5057462;28;20214;-71
2021/10/31 10:22:49;;;;;;;9.53;5.27;;;15.50;79.40;;;;;;5075777;28;20233;-71
2021/10/31 10:25:19;;;;;;;17.37;4.57;;;15.50;79.40;;;;;;5057753;28;20206;-71
2021/10/31 10:27:51;;;;;;;6.53;6.00;;;15.50;79.20;;;;;;5076345;28;20213;-71
2021/10/31 10:30:24;;;;;;;11.40;7.00;;;15.50;78.80;;;;;;5077707;28;20242;-71
2021/10/31 10:32:57;;;;;;;8.13;4.47;;;15.40;79.00;;;;;;5062446;28;20237;-70
2021/10/31 10:35:29;;;;;;;7.83;3.97;;;15.40;79.00;;;;;;5078004;28;20292;-71
2021/10/31 10:37:57;;;;;;;6.77;6.17;;;15.40;79.00;;;;;;5082086;28;20286;-71
2021/10/31 10:40:30;;;;;;;9.57;5.10;;;15.40;79.00;;;;;;5064461;28;20300;-71
2021/10/31 10:43:01;;;;;;;6.47;5.77;;;15.50;79.00;;;;;;5082373;28;20225;-71
2021/10/31 10:45:32;;;;;;;7.60;5.77;;;15.50;79.00;;;;;;5059835;28;20301;-71
2021/10/31 10:48:04;;;;;;;5.57;5.10;;;15.50;78.90;;;;;;5062641;28;20657;-71
2021/10/31 10:50:38;;;;;;;13.03;7.30;;;15.60;78.70;;;;;;5063066;28;20222;-71
2021/10/31 10:53:20;;;;;;;8.90;5.23;;;15.60;78.30;;;;;;5062607;28;20301;-71
2021/10/31 10:55:49;;;;;;;9.33;6.77;;;15.60;78.40;;;;;;5063881;28;20233;-71
2021/10/31 10:58:19;;;;;;;4.57;4.17;;;15.60;78.40;;;;;;5081465;28;20210;-72
2021/10/31 11:00:51;;;;;;;21.60;5.80;;;15.60;78.40;;;;;;5055747;28;20218;-71
2021/10/31 11:03:41;;;;;;;8.77;6.77;;;15.60;78.40;;;;;;5080188;28;20227;-72
2021/10/31 11:06:11;;;;;;;6.90;5.57;;;15.60;78.40;;;;;;5076039;28;20229;-72
2021/10/31 11:08:39;;;;;;;5.63;4.20;;;15.70;78.20;;;;;;5078572;28;20209;-72
2021/10/31 11:11:13;;;;;;;8.37;5.00;;;15.70;77.90;;;;;;5081187;28;20252;-71
2021/10/31 11:13:53;;;;;;;7.93;4.37;;;15.70;78.00;;;;;;5074724;28;20213;-72
2021/10/31 11:16:21;;;;;;;11.53;7.57;;;15.70;78.10;;;;;;5080149;28;20252;-72
2021/10/31 11:18:48;;;;;;;5.63;4.67;;;15.70;78.10;;;;;;5081433;28;20241;-72
2021/10/31 11:21:16;;;;;;;5.10;4.67;;;15.70;78.10;;;;;;5058638;28;20238;-72
2021/10/31 11:23:49;;;;;;;6.00;5.40;;;15.70;77.70;;;;;;5079488;28;20232;-73
2021/10/31 11:26:22;;;;;;;5.53;4.50;;;15.60;77.50;;;;;;5079378;28;20209;-72
2021/10/31 11:28:50;;;;;;;14.70;6.47;;;15.60;77.70;;;;;;5064354;28;20237;-72
2021/10/31 11:31:20;;;;;;;8.50;6.90;;;15.70;77.80;;;;;;5076961;28;20217;-72
2021/10/31 11:33:50;;;;;;;9.60;5.40;;;15.80;77.70;;;;;;5063028;28;20244;-72
2021/10/31 11:36:17;;;;;;;6.60;5.10;;;15.80;77.40;;;;;;5079967;28;20285;-72
2021/10/31 11:38:49;;;;;;;8.87;7.87;;;15.80;77.10;;;;;;5079978;28;20259;-74
2021/10/31 11:41:22;;;;;;;20.60;8.80;;;15.90;77.00;;;;;;5060707;28;20293;-71
2021/10/31 11:43:53;;;;;;;17.37;7.67;;;15.90;76.60;;;;;;5077723;28;20550;-70
2021/10/31 11:46:42;;;;;;;16.87;4.63;;;15.90;76.30;;;;;;5032395;28;20238;-70
2021/10/31 11:49:12;;;;;;;17.63;8.37;;;15.90;76.00;;;;;;5048827;28;20645;-70
2021/10/31 11:51:47;;;;;;;13.83;7.73;;;15.90;76.10;;;;;;5056614;28;20613;-70
2021/10/31 11:54:18;;;;;;;9.43;6.23;;;15.90;76.30;;;;;;5029015;28;20241;-70
2021/10/31 11:56:51;;;;;;;9.40;6.37;;;16.00;76.10;;;;;;5057247;28;20242;-70
2021/10/31 11:59:21;;;;;;;10.17;6.10;;;16.00;75.70;;;;;;5056209;28;20297;-71
2021/10/31 12:01:59;;;;;;;8.30;5.37;;;16.00;75.80;;;;;;5056782;28;20234;-70
2021/10/31 12:04:58;;;;;;;10.47;5.93;;;16.10;75.90;;;;;;5038316;28;20206;-71
2021/10/31 12:07:43;;;;;;;10.33;3.60;;;16.20;75.80;;;;;;5020315;28;20213;-71
2021/10/31 12:10:36;;;;;;;4.97;2.97;;;16.20;74.60;;;;;;5056633;28;20636;-71
2021/10/31 12:13:23;;;;;;;9.90;5.53;;;16.10;74.40;;;;;;5051903;28;20218;-73
2021/10/31 12:16:16;;;;;;;4.13;3.83;;;16.10;74.10;;;;;;5026007;28;20299;-72
2021/10/31 12:18:57;;;;;;;10.00;4.97;;;16.00;74.20;;;;;;5038486;28;20222;-71
2021/10/31 12:21:35;;;;;;;6.33;4.23;;;16.00;74.40;;;;;;5056533;28;20331;-72
2021/10/31 12:24:09;;;;;;;8.10;5.70;;;16.00;74.40;;;;;;5027071;28;20211;-72
2021/10/31 12:26:51;;;;;;;4.10;3.07;;;16.00;74.40;;;;;;5038563;28;20301;-72
2021/10/31 12:29:24;;;;;;;4.33;3.97;;;16.00;74.50;;;;;;5041290;28;20207;-72
2021/10/31 12:31:57;;;;;;;2.93;2.70;;;15.90;74.40;;;;;;5035489;28;20222;-72
2021/10/31 12:34:34;;;;;;;4.87;4.47;;;15.90;74.40;;;;;;5057221;28;20211;-71
2021/10/31 12:37:23;;;;;;;4.97;4.10;;;15.90;74.40;;;;;;5038394;28;20288;-72
2021/10/31 12:39:57;;;;;;;6.23;5.10;;;15.90;74.40;;;;;;5033735;28;20218;-71
2021/10/31 12:42:54;;;;;;;9.57;8.47;;;16.00;74.30;;;;;;5042793;28;20301;-72
2021/10/31 12:45:29;;;;;;;8.67;2.97;;;16.00;73.70;;;;;;5035623;28;20753;-72
2021/10/31 12:48:12;;;;;;;5.77;3.43;;;16.00;73.40;;;;;;5042135;28;20237;-71
2021/10/31 12:50:49;;;;;;;4.60;4.20;;;16.00;73.20;;;;;;5053639;28;20904;-72
2021/10/31 12:53:19;;;;;;;5.87;4.93;;;16.10;73.20;;;;;;5041922;28;20640;-71
2021/10/31 12:55:49;;;;;;;10.07;4.80;;;16.10;73.30;;;;;;5041996;28;20272;-72
2021/10/31 12:58:22;;;;;;;4.17;3.17;;;16.10;73.40;;;;;;5043866;28;20218;-72
2021/10/31 13:00:55;;;;;;;2.90;2.70;;;16.20;73.40;;;;;;5041219;28;20275;-71
2021/10/31 13:03:23;;;;;;;6.83;4.00;;;16.20;73.30;;;;;;5042236;28;20296;-71
2021/10/31 13:05:52;;;;;;;13.27;5.83;;;16.20;73.20;;;;;;5042839;28;20224;-71
2021/10/31 13:08:21;;;;;;;5.33;4.83;;;16.30;73.20;;;;;;5055809;28;20286;-72
2021/10/31 13:10:56;;;;;;;4.20;3.20;;;16.30;72.70;;;;;;5041484;28;20221;-71